Time;durP1;ratioP1;P1;durP2;ratioP2;P2;SDS_P1;SDS_P2;PMS_P1;PMS_P2;Temp;Humidity;BMP_temperature;BMP_pressure;BME280_temperature;BME280_humidity;BME280_pressure;Samples;Min_cycle;Max_cycle;Signal;HPM_P1;HPM_P2
2021/10/20 00:00:31;;;;;;;;;;;21.00;60.30;;;;;;5074852;28;1122;-67
2021/10/20 00:02:57;;;;;;;;;;;21.00;60.40;;;;;;5075177;28;1216;-68
2021/10/20 00:05:22;;;;;;;;;;;21.00;60.40;;;;;;5074665;28;1323;-67
2021/10/20 00:07:47;;;;;;;;;;;21.00;60.40;;;;;;5075098;28;1392;-68
2021/10/20 00:10:13;;;;;;;;;;;21.00;60.40;;;;;;5074975;28;1961;-68
2021/10/20 00:12:39;;;;;;;;;;;21.00;60.50;;;;;;5074067;28;1372;-67
2021/10/20 00:15:05;;;;;;;;;;;21.00;60.50;;;;;;5074174;28;1059;-68
2021/10/20 00:17:31;;;;;;;;;;;21.00;61.30;;;;;;5057070;28;1071;-67
2021/10/20 00:20:00;;;;;;;;;;;21.00;60.60;;;;;;5057002;28;1134;-67
2021/10/20 00:22:26;;;;;;;;;;;21.00;60.60;;;;;;5074802;28;1200;-67
2021/10/20 00:24:51;;;;;;;;;;;21.00;60.70;;;;;;5056326;28;1142;-67
2021/10/20 00:27:17;;;;;;;;;;;21.00;60.70;;;;;;5056677;28;1287;-68
2021/10/20 00:29:42;;;;;;;;;;;21.00;60.70;;;;;;5075118;28;1953;-68
2021/10/20 00:32:07;;;;;;;;;;;21.00;60.70;;;;;;5074941;28;1278;-67
2021/10/20 00:34:33;;;;;;;;;;;21.00;60.80;;;;;;5055795;28;1130;-68
2021/10/20 00:36:58;;;;;;;;;;;21.00;60.80;;;;;;5074511;28;1082;-68
2021/10/20 00:39:24;;;;;;;;;;;20.90;60.70;;;;;;5074679;28;1087;-67
2021/10/20 00:41:52;;;;;;;;;;;20.90;60.80;;;;;;5040092;28;1275;-68
2021/10/20 00:44:18;;;;;;;;;;;20.90;60.80;;;;;;5073613;28;1063;-67
2021/10/20 00:46:43;;;;;;;;;;;20.90;60.80;;;;;;5073854;28;1304;-68
2021/10/20 00:49:09;;;;;;;;;;;20.90;60.80;;;;;;5056591;28;1894;-68
2021/10/20 00:51:34;;;;;;;;;;;20.90;60.90;;;;;;5056323;28;1258;-68
2021/10/20 00:54:00;;;;;;;;;;;20.90;60.90;;;;;;5074412;28;1153;-67
2021/10/20 00:56:26;;;;;;;;;;;20.90;60.90;;;;;;5055773;28;1071;-67
2021/10/20 00:58:51;;;;;;;;;;;20.90;60.90;;;;;;5073872;28;1122;-68
2021/10/20 01:01:16;;;;;;;;;;;20.90;61.00;;;;;;5055946;28;1706;-67
2021/10/20 01:03:42;;;;;;;;;;;20.90;61.00;;;;;;5074319;28;1321;-68
2021/10/20 01:06:08;;;;;;;;;;;20.90;61.00;;;;;;5055473;28;1432;-67
2021/10/20 01:08:33;;;;;;;;;;;20.90;61.00;;;;;;5073466;28;1894;-67
2021/10/20 01:10:59;;;;;;;;;;;20.90;61.00;;;;;;5073980;28;1293;-68
2021/10/20 01:13:24;;;;;;;;;;;20.90;61.10;;;;;;5056004;28;1307;-67
2021/10/20 01:15:50;;;;;;;;;;;20.90;61.10;;;;;;5055336;28;1142;-67
2021/10/20 01:18:15;;;;;;;;;;;20.90;61.10;;;;;;5055847;28;1476;-67
2021/10/20 01:20:40;;;;;;;;;;;20.90;61.20;;;;;;5056048;28;1075;-68
2021/10/20 01:23:06;;;;;;;;;;;20.90;61.20;;;;;;5055626;28;1283;-67
2021/10/20 01:25:31;;;;;;;;;;;20.90;61.20;;;;;;5073272;28;1063;-67
2021/10/20 01:27:57;;;;;;;;;;;20.80;61.10;;;;;;5073620;28;1096;-67
2021/10/20 01:30:22;;;;;;;;;;;20.90;61.20;;;;;;5073132;28;1898;-67
2021/10/20 01:32:48;;;;;;;;;;;20.80;61.20;;;;;;5073523;28;1221;-68
2021/10/20 01:35:13;;;;;;;;;;;20.80;61.20;;;;;;5072713;28;1269;-68
2021/10/20 01:37:38;;;;;;;;;;;20.80;61.20;;;;;;5073608;28;1135;-67
2021/10/20 01:40:04;;;;;;;;;;;20.80;61.20;;;;;;5073628;28;1055;-68
2021/10/20 01:42:30;;;;;;;;;;;20.80;61.20;;;;;;5054792;28;1306;-67
2021/10/20 01:44:55;;;;;;;;;;;20.80;61.30;;;;;;5072675;28;1040;-67
2021/10/20 01:47:21;;;;;;;;;;;20.80;61.30;;;;;;5072439;28;1341;-67
2021/10/20 01:49:46;;;;;;;;;;;20.80;61.40;;;;;;5072915;28;1902;-68
2021/10/20 01:52:12;;;;;;;;;;;20.80;61.40;;;;;;5054935;28;1312;-68
2021/10/20 01:54:37;;;;;;;;;;;20.80;61.40;;;;;;5072769;28;1333;-67
2021/10/20 01:57:03;;;;;;;;;;;20.80;61.40;;;;;;5073138;28;1299;-68
2021/10/20 01:59:28;;;;;;;;;;;20.80;61.40;;;;;;5073359;28;1159;-67
2021/10/20 02:01:54;;;;;;;;;;;20.80;61.40;;;;;;5073206;28;1291;-67
2021/10/20 02:04:19;;;;;;;;;;;20.80;61.50;;;;;;5053644;28;1071;-67
2021/10/20 02:06:44;;;;;;;;;;;20.80;61.50;;;;;;5073296;28;1313;-68
2021/10/20 02:09:10;;;;;;;;;;;20.80;61.50;;;;;;5073004;28;1964;-68
2021/10/20 02:11:36;;;;;;;;;;;20.80;61.50;;;;;;5054734;28;1263;-68
2021/10/20 02:14:02;;;;;;;;;;;20.80;61.50;;;;;;5054747;28;1175;-68
2021/10/20 02:16:28;;;;;;;;;;;20.80;61.50;;;;;;5072151;28;1162;-68
2021/10/20 02:18:54;;;;;;;;;;;20.80;61.60;;;;;;5072927;28;1095;-68
2021/10/20 02:21:19;;;;;;;;;;;20.80;61.50;;;;;;5072892;28;1268;-68
2021/10/20 02:23:45;;;;;;;;;;;20.80;61.60;;;;;;5072170;28;1059;-68
2021/10/20 02:26:10;;;;;;;;;;;20.80;61.60;;;;;;5072125;28;1099;-68
2021/10/20 02:28:35;;;;;;;;;;;20.80;61.60;;;;;;5072354;28;1917;-67
2021/10/20 02:31:01;;;;;;;;;;;20.80;61.60;;;;;;5072488;28;1114;-68
2021/10/20 02:33:26;;;;;;;;;;;20.80;61.70;;;;;;5072350;28;1286;-68
2021/10/20 02:35:52;;;;;;;;;;;20.80;61.70;;;;;;5053998;28;1252;-67
2021/10/20 02:38:17;;;;;;;;;;;20.70;61.60;;;;;;5072661;28;1119;-68
2021/10/20 02:40:43;;;;;;;;;;;20.80;61.70;;;;;;5072149;28;1094;-68
2021/10/20 02:43:08;;;;;;;;;;;20.70;61.60;;;;;;5072372;28;1281;-68
2021/10/20 02:45:33;;;;;;;;;;;20.70;61.70;;;;;;5071449;28;1098;-68
2021/10/20 02:47:59;;;;;;;;;;;20.80;61.70;;;;;;5072329;28;1102;-67
2021/10/20 02:50:28;;;;;;;;;;;20.70;61.70;;;;;;5072550;28;1942;-68
2021/10/20 02:52:54;;;;;;;;;;;20.70;61.70;;;;;;5071957;28;1274;-67
2021/10/20 02:55:19;;;;;;;;;;;20.70;61.70;;;;;;5071704;28;1086;-67
2021/10/20 02:57:44;;;;;;;;;;;20.70;61.80;;;;;;5072184;28;1161;-67
2021/10/20 03:00:10;;;;;;;;;;;20.70;61.70;;;;;;5072018;28;1370;-67
2021/10/20 03:02:35;;;;;;;;;;;20.70;61.80;;;;;;5072348;28;1330;-67
2021/10/20 03:05:01;;;;;;;;;;;20.70;61.80;;;;;;5053343;28;1378;-66
2021/10/20 03:07:26;;;;;;;;;;;20.70;61.80;;;;;;5072468;28;1059;-68
2021/10/20 03:09:52;;;;;;;;;;;20.70;61.80;;;;;;5053764;28;1913;-67
2021/10/20 03:12:17;;;;;;;;;;;20.70;61.80;;;;;;5072096;28;1232;-67
2021/10/20 03:14:42;;;;;;;;;;;20.70;61.80;;;;;;5070320;28;1215;-67
2021/10/20 03:17:10;;;;;;;;;;;20.70;61.90;;;;;;5074980;28;1373;-67
2021/10/20 03:19:35;;;;;;;;;;;20.70;61.80;;;;;;5057762;28;1312;-67
2021/10/20 03:22:01;;;;;;;;;;;20.70;61.90;;;;;;5076378;28;1293;-67
2021/10/20 03:24:26;;;;;;;;;;;20.70;61.90;;;;;;5075370;28;1173;-67
2021/10/20 03:26:52;;;;;;;;;;;20.70;61.90;;;;;;5075953;28;1060;-67
2021/10/20 03:29:17;;;;;;;;;;;20.70;61.90;;;;;;5075530;28;1974;-67
2021/10/20 03:31:42;;;;;;;;;;;20.70;61.90;;;;;;5075910;28;1277;-67
2021/10/20 03:34:08;;;;;;;;;;;20.70;61.90;;;;;;5075606;28;1306;-67
2021/10/20 03:36:33;;;;;;;;;;;20.70;61.90;;;;;;5075564;28;1130;-67
2021/10/20 03:38:59;;;;;;;;;;;20.70;61.90;;;;;;5057629;28;1126;-67
2021/10/20 03:41:24;;;;;;;;;;;20.70;61.90;;;;;;5075805;28;1284;-67
2021/10/20 03:43:50;;;;;;;;;;;20.70;61.90;;;;;;5075622;28;1253;-67
2021/10/20 03:46:15;;;;;;;;;;;20.80;61.90;;;;;;5074934;28;1265;-67
2021/10/20 03:48:40;;;;;;;;;;;20.80;61.80;;;;;;5075490;28;1902;-67
2021/10/20 03:51:06;;;;;;;;;;;20.80;61.80;;;;;;5075708;28;1126;-67
2021/10/20 03:53:31;;;;;;;;;;;20.80;61.70;;;;;;5057424;28;1376;-67
2021/10/20 03:55:57;;;;;;;;;;;20.80;61.60;;;;;;5039898;28;1369;-67
2021/10/20 03:58:22;;;;;;;;;;;20.90;61.50;;;;;;5075457;28;1360;-68
2021/10/20 04:00:48;;;;;;;;;;;20.90;61.40;;;;;;5075482;28;1031;-66
2021/10/20 04:03:14;;;;;;;;;;;20.90;61.40;;;;;;5074942;28;1324;-67
2021/10/20 04:05:39;;;;;;;;;;;20.90;61.20;;;;;;5074480;28;1071;-67
2021/10/20 04:08:04;;;;;;;;;;;20.90;61.20;;;;;;5075095;28;1909;-67
2021/10/20 04:10:30;;;;;;;;;;;21.00;61.20;;;;;;5075154;28;1119;-67
2021/10/20 04:12:55;;;;;;;;;;;21.00;61.10;;;;;;5073526;28;1351;-67
2021/10/20 04:15:22;;;;;;;;;;;21.00;61.10;;;;;;5074115;28;1114;-67
2021/10/20 04:17:47;;;;;;;;;;;21.00;61.00;;;;;;5057347;28;1130;-67
2021/10/20 04:20:13;;;;;;;;;;;21.00;60.90;;;;;;5057178;28;1086;-67
2021/10/20 04:22:39;;;;;;;;;;;21.10;60.90;;;;;;5056502;28;1349;-67
2021/10/20 04:25:05;;;;;;;;;;;21.10;60.90;;;;;;5056244;28;1075;-67
2021/10/20 04:27:30;;;;;;;;;;;21.10;60.90;;;;;;5074355;28;1094;-67
2021/10/20 04:29:57;;;;;;;;;;;21.10;60.80;;;;;;5074866;28;1961;-67
2021/10/20 04:32:22;;;;;;;;;;;21.10;60.70;;;;;;5074748;28;1311;-67
2021/10/20 04:34:48;;;;;;;;;;;21.10;60.70;;;;;;5074302;28;1035;-67
2021/10/20 04:37:13;;;;;;;;;;;21.10;60.70;;;;;;5074379;28;1060;-67
2021/10/20 04:39:39;;;;;;;;;;;21.10;60.60;;;;;;5056530;28;1075;-66
2021/10/20 04:42:04;;;;;;;;;;;21.20;60.70;;;;;;5074447;28;1421;-67
2021/10/20 04:44:30;;;;;;;;;;;21.10;60.60;;;;;;5073690;28;1345;-67
2021/10/20 04:46:55;;;;;;;;;;;21.20;60.60;;;;;;5074492;28;1259;-67
2021/10/20 04:49:21;;;;;;;;;;;21.20;60.60;;;;;;5060059;28;1910;-66
2021/10/20 04:51:46;;;;;;;;;;;21.20;60.60;;;;;;5061129;28;2055;-67
2021/10/20 04:54:11;;;;;;;;;;;21.20;60.50;;;;;;5072346;28;1173;-67
2021/10/20 04:56:37;;;;;;;;;;;21.20;60.50;;;;;;5072725;28;1141;-67
2021/10/20 04:59:02;;;;;;;;;;;21.20;60.50;;;;;;5073420;28;1114;-66
2021/10/20 05:01:28;;;;;;;;;;;21.10;60.40;;;;;;5055024;28;1397;-67
2021/10/20 05:03:53;;;;;;;;;;;21.20;60.50;;;;;;5054904;28;1268;-67
2021/10/20 05:06:18;;;;;;;;;;;21.20;60.50;;;;;;5072608;28;1095;-66
2021/10/20 05:08:44;;;;;;;;;;;21.20;60.50;;;;;;5072472;28;1943;-66
2021/10/20 05:11:09;;;;;;;;;;;21.20;60.40;;;;;;5072916;28;1302;-66
2021/10/20 05:13:35;;;;;;;;;;;21.20;60.50;;;;;;5071824;28;1293;-66
2021/10/20 05:16:00;;;;;;;;;;;21.20;60.40;;;;;;5054291;28;1256;-66
2021/10/20 05:18:26;;;;;;;;;;;21.20;60.40;;;;;;5072964;28;1126;-66
2021/10/20 05:20:51;;;;;;;;;;;21.20;60.40;;;;;;5072528;28;1055;-67
2021/10/20 05:23:16;;;;;;;;;;;21.20;60.40;;;;;;5097934;22;1945;-69
2021/10/20 05:25:42;;;;;;;;;;;21.20;60.40;;;;;;5072074;28;1302;-69
2021/10/20 05:28:07;;;;;;;;;;;21.20;60.40;;;;;;5072791;28;1157;-69
2021/10/20 05:30:33;;;;;;;;;;;21.20;60.40;;;;;;5072546;28;1314;-69
2021/10/20 05:32:58;;;;;;;;;;;21.20;60.40;;;;;;5073113;28;1380;-68
2021/10/20 05:35:24;;;;;;;;;;;21.20;60.40;;;;;;5070089;28;2009;-71
2021/10/20 05:37:51;;;;;;;;;;;21.20;60.40;;;;;;5071408;28;1022;-69
2021/10/20 05:40:16;;;;;;;;;;;21.20;60.40;;;;;;5072334;28;1296;-69
2021/10/20 05:42:42;;;;;;;;;;;21.20;60.40;;;;;;5060086;28;1835;-69
2021/10/20 05:45:07;;;;;;;;;;;21.20;60.30;;;;;;5071992;28;1243;-72
2021/10/20 05:47:33;;;;;;;;;;;21.20;60.40;;;;;;5064531;28;1805;-69
2021/10/20 05:49:58;;;;;;;;;;;21.20;60.40;;;;;;5064853;28;2148;-69
2021/10/20 05:52:24;;;;;;;;;;;21.20;60.40;;;;;;5071520;28;1300;-70
2021/10/20 05:54:49;;;;;;;;;;;21.30;60.40;;;;;;5071352;28;1266;-70
2021/10/20 05:57:14;;;;;;;;;;;21.20;60.40;;;;;;5071867;28;1014;-70
2021/10/20 05:59:40;;;;;;;;;;;21.20;60.30;;;;;;5071746;28;1445;-70
2021/10/20 06:02:09;;;;;;;;;;;21.20;60.30;;;;;;5065565;28;1388;-71
2021/10/20 06:04:35;;;;;;;;;;;21.30;60.40;;;;;;5064393;28;1617;-71
2021/10/20 06:07:00;;;;;;;;;;;21.30;60.40;;;;;;5053838;28;1142;-71
2021/10/20 06:09:26;;;;;;;;;;;21.20;60.30;;;;;;5071048;28;1969;-71
2021/10/20 06:11:51;;;;;;;;;;;21.30;60.20;;;;;;5051677;28;1317;-68
2021/10/20 06:14:16;;;;;;;;;;;21.30;60.10;;;;;;5069450;28;1426;-68
2021/10/20 06:16:42;;;;;;;;;;;21.40;60.00;;;;;;5071687;28;1293;-68
2021/10/20 06:19:08;;;;;;;;;;;21.40;60.20;;;;;;5071961;28;1267;-69
2021/10/20 06:21:34;;;;;;;;;;;21.50;59.60;;;;;;5071622;28;1258;-69
2021/10/20 06:23:59;;;;;;;;;;;21.50;59.60;;;;;;5071447;28;1309;-69
2021/10/20 06:26:24;;;;;;;;;;;21.60;59.10;;;;;;5052702;28;1348;-69
2021/10/20 06:28:50;;;;;;;;;;;21.60;58.30;;;;;;5053601;28;1975;-70
2021/10/20 06:31:15;;;;;;;;;;;21.60;58.10;;;;;;5052532;28;905;-69
2021/10/20 06:33:42;;;;;;;;;;;21.60;57.90;;;;;;5071175;28;1217;-69
2021/10/20 06:36:28;;;;;;;;;;;21.60;57.10;;;;;;5052778;28;1262;-75
2021/10/20 06:38:53;;;;;;;;;;;21.60;57.40;;;;;;5039968;28;1346;-71
2021/10/20 06:41:19;;;;;;;;;;;21.60;57.00;;;;;;5072847;28;1048;-70
2021/10/20 06:43:44;;;;;;;;;;;21.60;57.00;;;;;;5072439;28;1436;-70
2021/10/20 06:46:09;;;;;;;;;;;21.60;57.10;;;;;;5071729;28;1322;-70
2021/10/20 06:48:36;;;;;;;;;;;21.60;57.40;;;;;;5072947;28;1973;-70
2021/10/20 06:51:01;;;;;;;;;;;21.60;56.80;;;;;;5071697;28;1265;-70
2021/10/20 06:53:26;;;;;;;;;;;21.60;56.80;;;;;;5072136;28;1273;-70
2021/10/20 06:55:52;;;;;;;;;;;21.60;56.70;;;;;;5072039;28;1251;-70
2021/10/20 06:58:17;;;;;;;;;;;21.60;56.70;;;;;;5072440;28;1309;-70
2021/10/20 07:00:43;;;;;;;;;;;21.60;56.70;;;;;;5072094;28;1249;-70
2021/10/20 07:03:08;;;;;;;;;;;21.60;56.50;;;;;;5060435;28;1284;-70
2021/10/20 07:05:34;;;;;;;;;;;21.60;56.40;;;;;;5060965;28;1267;-70
2021/10/20 07:07:59;;;;;;;;;;;21.60;56.30;;;;;;5053429;28;1141;-70
2021/10/20 07:10:25;;;;;;;;;;;21.60;56.40;;;;;;5063694;28;1953;-70
2021/10/20 07:12:50;;;;;;;;;;;21.70;56.80;;;;;;5049138;28;1409;-70
2021/10/20 07:15:16;;;;;;;;;;;21.70;57.20;;;;;;5067916;28;1359;-70
2021/10/20 07:17:41;;;;;;;;;;;21.80;57.50;;;;;;5069948;28;1276;-70
2021/10/20 07:20:07;;;;;;;;;;;21.80;57.60;;;;;;5067912;28;1237;-71
2021/10/20 07:22:38;;;;;;;;;;;21.80;57.70;;;;;;5069217;28;1292;-70
2021/10/20 07:25:03;;;;;;;;;;;21.80;57.90;;;;;;5070733;28;1360;-70
2021/10/20 07:27:31;;;;;;;;;;;21.80;58.00;;;;;;5049914;28;1332;-70
2021/10/20 07:29:56;;;;;;;;;;;21.90;58.20;;;;;;5049643;28;1964;-70
2021/10/20 07:32:22;;;;;;;;;;;21.90;58.20;;;;;;5070521;28;1292;-70
2021/10/20 07:34:47;;;;;;;;;;;21.90;58.30;;;;;;5064675;28;1253;-68
2021/10/20 07:37:13;;;;;;;;;;;21.90;58.40;;;;;;5054214;28;1207;-70
2021/10/20 07:39:38;;;;;;;;;;;21.90;58.50;;;;;;5054474;28;1345;-70
2021/10/20 07:42:04;;;;;;;;;;;21.90;58.60;;;;;;5072021;28;1346;-70
2021/10/20 07:44:29;;;;;;;;;;;21.90;58.70;;;;;;5071268;28;1281;-70
2021/10/20 07:46:55;;;;;;;;;;;21.90;58.80;;;;;;5071682;28;1242;-70
2021/10/20 07:49:20;;;;;;;;;;;21.90;58.90;;;;;;5070103;28;2230;-70
2021/10/20 07:51:45;;;;;;;;;;;22.00;59.00;;;;;;5080372;28;1504;-70
2021/10/20 07:54:11;;;;;;;;;;;22.00;59.10;;;;;;5079249;28;951;-70
2021/10/20 07:56:42;;;;;;;;;;;21.90;59.10;;;;;;5088283;28;1268;-70
2021/10/20 07:59:07;;;;;;;;;;;22.00;59.20;;;;;;5072006;28;1107;-71
2021/10/20 08:01:33;;;;;;;;;;;22.00;59.30;;;;;;5080068;28;1026;-70
2021/10/20 08:03:58;;;;;;;;;;;22.00;59.40;;;;;;5083991;28;1284;-70
2021/10/20 08:06:24;;;;;;;;;;;22.00;59.50;;;;;;5074687;28;1394;-70
2021/10/20 08:08:49;;;;;;;;;;;22.00;59.50;;;;;;5075383;28;1902;-70
2021/10/20 08:11:14;;;;;;;;;;;22.00;59.60;;;;;;5056508;28;1103;-70
2021/10/20 08:13:40;;;;;;;;;;;22.00;59.60;;;;;;5074948;28;1306;-70
2021/10/20 08:16:05;;;;;;;;;;;22.00;59.70;;;;;;5074202;28;1106;-70
2021/10/20 08:18:31;;;;;;;;;;;22.00;59.80;;;;;;5075060;28;1305;-70
2021/10/20 08:20:56;;;;;;;;;;;22.00;59.80;;;;;;5057054;28;1265;-70
2021/10/20 08:23:22;;;;;;;;;;;22.00;59.80;;;;;;5075051;28;1349;-70
2021/10/20 08:25:47;;;;;;;;;;;22.00;59.90;;;;;;5056204;28;1490;-70
2021/10/20 08:28:12;;;;;;;;;;;22.00;59.90;;;;;;5074800;28;1023;-70
2021/10/20 08:30:38;;;;;;;;;;;22.00;60.00;;;;;;5074728;28;1967;-70
2021/10/20 08:33:03;;;;;;;;;;;22.00;60.00;;;;;;5074763;28;1280;-70
2021/10/20 08:35:29;;;;;;;;;;;22.00;60.10;;;;;;5055824;28;1396;-70
2021/10/20 08:37:56;;;;;;;;;;;22.00;60.20;;;;;;5074567;28;1047;-70
2021/10/20 08:40:25;;;;;;;;;;;22.00;60.30;;;;;;5057204;28;1307;-70
2021/10/20 08:42:51;;;;;;;;;;;22.00;60.30;;;;;;5056828;28;1321;-70
2021/10/20 08:45:16;;;;;;;;;;;22.00;60.40;;;;;;5073625;28;1432;-70
2021/10/20 08:47:45;;;;;;;;;;;22.00;60.60;;;;;;5055769;28;1279;-70
2021/10/20 08:50:10;;;;;;;;;;;22.00;60.60;;;;;;5074147;28;1929;-71
2021/10/20 08:52:36;;;;;;;;;;;22.00;60.70;;;;;;5057235;28;1639;-72
2021/10/20 08:55:01;;;;;;;;;;;22.00;60.80;;;;;;5065349;28;1354;-72
2021/10/20 08:57:27;;;;;;;;;;;22.00;60.90;;;;;;5083776;28;1313;-72
2021/10/20 08:59:52;;;;;;;;;;;22.00;61.70;;;;;;5066148;28;1670;-72
2021/10/20 09:02:21;;;;;;;;;;;22.00;60.90;;;;;;5084758;28;1337;-71
2021/10/20 09:04:49;;;;;;;;;;;21.90;60.90;;;;;;5084391;28;1413;-73
2021/10/20 09:07:15;;;;;;;;;;;21.90;61.00;;;;;;5068174;28;1297;-72
2021/10/20 09:09:40;;;;;;;;;;;21.90;61.00;;;;;;5086477;28;1910;-72
2021/10/20 09:12:06;;;;;;;;;;;21.90;61.00;;;;;;5087058;28;1287;-72
2021/10/20 09:14:31;;;;;;;;;;;21.90;61.10;;;;;;5067973;28;1302;-72
2021/10/20 09:16:57;;;;;;;;;;;21.90;61.10;;;;;;5067698;28;1333;-72
2021/10/20 09:19:29;;;;;;;;;;;21.90;61.30;;;;;;5067981;28;1576;-73
2021/10/20 09:21:58;;;;;;;;;;;21.90;61.40;;;;;;5050324;28;1300;-72
2021/10/20 09:24:26;;;;;;;;;;;21.90;61.40;;;;;;5066818;28;1337;-72
2021/10/20 09:26:52;;;;;;;;;;;21.90;61.40;;;;;;5066859;28;1360;-72
2021/10/20 09:29:18;;;;;;;;;;;21.90;61.50;;;;;;5085799;28;1961;-71
2021/10/20 09:31:43;;;;;;;;;;;21.90;61.50;;;;;;5066334;28;1378;-72
2021/10/20 09:34:10;;;;;;;;;;;21.90;61.60;;;;;;5061663;28;1373;-71
2021/10/20 09:36:35;;;;;;;;;;;21.90;61.70;;;;;;5080199;28;1550;-71
2021/10/20 09:39:01;;;;;;;;;;;21.90;61.80;;;;;;5062419;28;1285;-72
2021/10/20 09:41:26;;;;;;;;;;;21.90;61.80;;;;;;5080263;28;1246;-72
2021/10/20 09:43:54;;;;;;;;;;;21.80;61.80;;;;;;5080146;28;1227;-71
2021/10/20 09:46:33;;;;;;;;;;;21.80;61.90;;;;;;5079414;28;1067;-72
2021/10/20 09:49:02;;;;;;;;;;;21.80;62.00;;;;;;5080047;28;1874;-72
2021/10/20 09:51:28;;;;;;;;;;;21.80;62.20;;;;;;5079696;28;1066;-71
2021/10/20 09:53:53;;;;;;;;;;;21.80;62.30;;;;;;5080948;28;1432;-73
2021/10/20 09:56:23;;;;;;;;;;;21.90;62.50;;;;;;5062109;28;1134;-72
2021/10/20 09:58:49;;;;;;;;;;;21.80;62.50;;;;;;5063463;28;1082;-72
2021/10/20 10:01:19;;;;;;;;;;;21.80;62.50;;;;;;5063133;28;1148;-72
2021/10/20 10:03:44;;;;;;;;;;;21.80;62.70;;;;;;5080179;28;1367;-72
2021/10/20 10:06:09;;;;;;;;;;;21.80;62.70;;;;;;5061150;28;1660;-73
2021/10/20 10:08:35;;;;;;;;;;;21.80;62.80;;;;;;5063059;28;1949;-72
2021/10/20 10:11:00;;;;;;;;;;;21.80;62.90;;;;;;5046017;28;1101;-72
2021/10/20 10:13:27;;;;;;;;;;;21.80;63.10;;;;;;5062915;28;1243;-73
2021/10/20 10:15:52;;;;;;;;;;;21.80;63.20;;;;;;5079363;28;1308;-72
2021/10/20 10:18:18;;;;;;;;;;;21.80;63.30;;;;;;5054973;28;1115;-71
2021/10/20 10:20:44;;;;;;;;;;;21.80;63.30;;;;;;5072713;28;1420;-68
2021/10/20 10:23:30;;;;;;;;;;;21.80;63.50;;;;;;5072622;28;1307;-70
2021/10/20 10:25:59;;;;;;;;;;;21.80;63.60;;;;;;5071477;28;1370;-70
2021/10/20 10:28:25;;;;;;;;;;;21.80;63.80;;;;;;5068555;28;1910;-69
2021/10/20 10:30:52;;;;;;;;;;;21.70;64.10;;;;;;5047528;28;1378;-71
2021/10/20 10:33:21;;;;;;;;;;;21.70;64.20;;;;;;5071536;28;1241;-71
2021/10/20 10:36:01;;;;;;;;;;;21.70;64.30;;;;;;5070003;28;2067;-70
2021/10/20 10:38:33;;;;;;;;;;;21.70;64.30;;;;;;5083894;28;947;-70
2021/10/20 10:41:18;;;;;;;;;;;21.70;65.10;;;;;;5081497;28;1110;-70
2021/10/20 10:44:07;;;;;;;;;;;21.70;64.30;;;;;;5075413;28;1334;-71
2021/10/20 10:46:36;;;;;;;;;;;21.70;64.30;;;;;;5066381;28;2133;-70
2021/10/20 10:49:02;;;;;;;;;;;21.70;64.40;;;;;;5052444;28;1898;-70
2021/10/20 10:51:28;;;;;;;;;;;21.70;64.60;;;;;;5052227;28;1327;-70
2021/10/20 10:53:54;;;;;;;;;;;21.70;64.60;;;;;;5053863;28;1387;-70
2021/10/20 10:56:19;;;;;;;;;;;21.70;64.60;;;;;;5071510;28;1430;-70
2021/10/20 10:59:00;;;;;;;;;;;21.70;64.50;;;;;;5071918;28;1455;-70
2021/10/20 11:01:39;;;;;;;;;;;21.70;64.50;;;;;;5072370;28;1325;-70
2021/10/20 11:04:20;;;;;;;;;;;21.70;64.50;;;;;;5071663;28;1392;-71
2021/10/20 11:06:46;;;;;;;;;;;21.70;64.50;;;;;;5071969;28;1310;-70
2021/10/20 11:09:15;;;;;;;;;;;21.70;64.50;;;;;;5053774;28;1894;-71
2021/10/20 11:11:51;;;;;;;;;;;21.70;64.60;;;;;;5072147;28;1339;-71
2021/10/20 11:14:16;;;;;;;;;;;21.70;64.70;;;;;;5053419;28;1239;-70
2021/10/20 11:16:46;;;;;;;;;;;21.70;64.60;;;;;;5071667;28;1289;-71
2021/10/20 11:19:12;;;;;;;;;;;21.70;64.60;;;;;;5072145;28;1333;-70
2021/10/20 11:21:38;;;;;;;;;;;21.70;64.60;;;;;;5072066;28;1337;-71
2021/10/20 11:24:06;;;;;;;;;;;21.60;64.60;;;;;;5087656;22;2181;-70
2021/10/20 11:26:31;;;;;;;;;;;21.70;64.80;;;;;;5049098;28;1862;-69
2021/10/20 11:29:04;;;;;;;;;;;21.70;64.80;;;;;;5054466;28;1949;-69
2021/10/20 11:31:30;;;;;;;;;;;21.70;65.00;;;;;;5072312;28;1758;-69
2021/10/20 11:33:55;;;;;;;;;;;21.70;65.00;;;;;;5053976;28;1307;-69
2021/10/20 11:36:21;;;;;;;;;;;21.80;64.90;;;;;;5071621;28;1186;-70
2021/10/20 11:38:47;;;;;;;;;;;21.80;64.90;;;;;;5067660;28;1600;-70
2021/10/20 11:41:18;;;;;;;;;;;21.90;64.90;;;;;;5075529;28;1263;-70
2021/10/20 11:43:46;;;;;;;;;;;21.90;65.10;;;;;;5073775;28;1578;-70
2021/10/20 11:46:16;;;;;;;;;;;22.00;65.30;;;;;;5072837;28;1381;-70
2021/10/20 11:48:41;;;;;;;;;;;22.00;65.10;;;;;;5073793;28;1965;-70
2021/10/20 11:51:07;;;;;;;;;;;22.10;64.90;;;;;;5056752;28;1231;-70
2021/10/20 11:53:32;;;;;;;;;;;22.10;64.60;;;;;;5073287;28;1667;-70
2021/10/20 11:55:58;;;;;;;;;;;22.20;64.40;;;;;;5073982;28;1221;-70
2021/10/20 11:58:24;;;;;;;;;;;22.30;64.50;;;;;;5058543;28;1286;-70
2021/10/20 12:00:51;;;;;;;;;;;22.30;63.90;;;;;;5073931;28;1398;-69
2021/10/20 12:03:16;;;;;;;;;;;22.30;63.80;;;;;;5074055;28;1429;-69
2021/10/20 12:05:41;;;;;;;;;;;22.40;63.80;;;;;;5074316;28;1258;-69
2021/10/20 12:08:07;;;;;;;;;;;22.40;62.60;;;;;;5073748;28;1324;-69
2021/10/20 12:10:32;;;;;;;;;;;22.40;61.40;;;;;;5073877;28;2012;-69
2021/10/20 12:12:58;;;;;;;;;;;22.50;60.90;;;;;;5056497;28;1286;-69
2021/10/20 12:15:23;;;;;;;;;;;22.40;60.30;;;;;;5072144;28;1270;-69
2021/10/20 12:17:50;;;;;;;;;;;22.40;60.00;;;;;;5074468;28;1288;-70
2021/10/20 12:20:16;;;;;;;;;;;22.40;59.70;;;;;;5071106;28;1038;-69
2021/10/20 12:22:41;;;;;;;;;;;22.40;59.50;;;;;;5072509;28;1328;-69
2021/10/20 12:25:07;;;;;;;;;;;22.40;59.40;;;;;;5055025;28;1369;-69
2021/10/20 12:27:32;;;;;;;;;;;22.30;59.20;;;;;;5073192;28;1278;-69
2021/10/20 12:30:04;;;;;;;;;;;22.30;59.10;;;;;;5072494;28;1906;-69
2021/10/20 12:32:35;;;;;;;;;;;22.30;58.90;;;;;;5074522;28;1295;-69
2021/10/20 12:35:03;;;;;;;;;;;22.30;58.90;;;;;;5055857;28;1305;-69
2021/10/20 12:37:32;;;;;;;;;;;22.30;59.10;;;;;;5072278;28;1337;-70
2021/10/20 12:39:58;;;;;;;;;;;22.20;58.60;;;;;;5073234;28;1406;-70
2021/10/20 12:42:24;;;;;;;;;;;22.20;58.60;;;;;;5073289;28;1474;-69
2021/10/20 12:44:55;;;;;;;;;;;22.20;58.60;;;;;;5055712;28;1373;-68
2021/10/20 12:47:21;;;;;;;;;;;22.20;58.50;;;;;;5055827;28;1322;-68
2021/10/20 12:49:50;;;;;;;;;;;22.20;58.40;;;;;;5073908;28;1893;-68
2021/10/20 12:52:15;;;;;;;;;;;22.20;58.30;;;;;;5073155;28;1339;-68
2021/10/20 12:54:46;;;;;;;;;;;22.20;58.10;;;;;;5055703;28;1350;-68
2021/10/20 12:57:13;;;;;;;;;;;22.20;57.90;;;;;;5073929;28;1295;-68
2021/10/20 12:59:38;;;;;;;;;;;22.10;57.60;;;;;;5072564;28;1279;-68
2021/10/20 13:02:05;;;;;;;;;;;22.10;57.50;;;;;;5072860;28;1327;-68
2021/10/20 13:04:30;;;;;;;;;;;22.10;57.50;;;;;;5071980;28;1263;-68
2021/10/20 13:06:57;;;;;;;;;;;22.10;57.50;;;;;;5074408;28;1370;-68
2021/10/20 13:09:23;;;;;;;;;;;22.10;57.50;;;;;;5073727;28;1898;-68
2021/10/20 13:11:48;;;;;;;;;;;22.10;57.60;;;;;;5056431;28;1317;-68
2021/10/20 13:14:13;;;;;;;;;;;22.10;57.50;;;;;;5073607;28;1261;-69
2021/10/20 13:16:39;;;;;;;;;;;22.10;57.50;;;;;;5074351;28;1285;-69
2021/10/20 13:19:04;;;;;;;;;;;22.10;57.40;;;;;;5072834;28;1302;-69
2021/10/20 13:21:30;;;;;;;;;;;22.10;57.40;;;;;;5074113;28;1455;-69
2021/10/20 13:23:55;;;;;;;;;;;22.00;57.20;;;;;;5072968;28;1225;-70
2021/10/20 13:26:22;;;;;;;;;;;22.00;57.20;;;;;;5072739;28;1504;-69
2021/10/20 13:28:47;;;;;;;;;;;22.00;57.10;;;;;;5073846;28;1909;-69
2021/10/20 13:31:12;;;;;;;;;;;22.00;57.20;;;;;;5055481;28;1366;-68
2021/10/20 13:33:38;;;;;;;;;;;22.00;57.00;;;;;;5072576;28;1329;-68
2021/10/20 13:36:10;;;;;;;;;;;22.00;57.10;;;;;;5072897;28;1369;-70
2021/10/20 13:38:35;;;;;;;;;;;22.00;57.10;;;;;;5074036;28;1337;-70
2021/10/20 13:41:01;;;;;;;;;;;22.00;57.20;;;;;;5073899;28;1264;-71
2021/10/20 13:43:26;;;;;;;;;;;22.00;57.30;;;;;;5073466;28;1382;-69
2021/10/20 13:45:51;;;;;;;;;;;22.00;57.40;;;;;;5073151;28;1306;-69
2021/10/20 13:48:17;;;;;;;;;;;21.90;57.50;;;;;;5070457;28;1953;-69
2021/10/20 13:50:42;;;;;;;;;;;21.90;57.60;;;;;;5038522;28;1918;-69
2021/10/20 13:53:08;;;;;;;;;;;21.90;57.70;;;;;;5055099;28;1272;-70
2021/10/20 13:55:33;;;;;;;;;;;21.90;57.90;;;;;;5072622;28;1018;-69
2021/10/20 13:57:59;;;;;;;;;;;21.90;58.00;;;;;;5055007;28;1198;-69
2021/10/20 14:00:25;;;;;;;;;;;21.90;58.10;;;;;;5037785;28;1254;-70
2021/10/20 14:02:50;;;;;;;;;;;21.90;58.10;;;;;;5072719;28;1394;-69
2021/10/20 14:05:16;;;;;;;;;;;21.90;58.10;;;;;;5054733;28;1205;-69
2021/10/20 14:07:42;;;;;;;;;;;21.90;58.20;;;;;;5073202;28;1356;-69
2021/10/20 14:10:07;;;;;;;;;;;21.90;58.30;;;;;;5072041;28;1906;-70
2021/10/20 14:12:33;;;;;;;;;;;21.90;58.30;;;;;;5054940;28;1369;-70
2021/10/20 14:14:58;;;;;;;;;;;21.90;58.90;;;;;;5054420;28;1280;-69
2021/10/20 14:17:24;;;;;;;;;;;21.90;58.40;;;;;;5071812;28;1305;-69
2021/10/20 14:19:50;;;;;;;;;;;21.90;58.50;;;;;;5072659;28;1412;-69
2021/10/20 14:22:16;;;;;;;;;;;21.90;58.50;;;;;;5073494;28;1337;-69
2021/10/20 14:24:42;;;;;;;;;;;21.90;58.60;;;;;;5070829;28;1339;-70